Time;durP1;ratioP1;P1;durP2;ratioP2;P2;SDS_P1;SDS_P2;PMS_P1;PMS_P2;Temp;Humidity;BMP_temperature;BMP_pressure;BME280_temperature;BME280_humidity;BME280_pressure;Samples;Min_cycle;Max_cycle;Signal;HPM_P1;HPM_P2
2022/09/29 00:01:10;;;;;;;1.08;0.40;;;7.30;90.00;;;;;;4871407;29;20066;-77
2022/09/29 00:03:36;;;;;;;0.40;0.40;;;7.30;90.00;;;;;;4898025;29;20037;-78
2022/09/29 00:06:02;;;;;;;0.98;0.40;;;7.20;89.90;;;;;;4898089;29;20041;-78
2022/09/29 00:08:29;;;;;;;0.60;0.40;;;7.20;89.90;;;;;;4898218;29;20364;-78
2022/09/29 00:10:56;;;;;;;0.20;0.20;;;7.20;89.90;;;;;;4863856;29;20045;-77
2022/09/29 00:13:22;;;;;;;1.85;0.47;;;7.20;90.00;;;;;;4897798;29;20376;-77
2022/09/29 00:16:01;;;;;;;0.47;0.35;;;7.10;90.00;;;;;;4897888;29;20048;-77
2022/09/29 00:18:28;;;;;;;0.50;0.30;;;7.10;90.00;;;;;;4898242;29;20478;-77
2022/09/29 00:20:57;;;;;;;0.40;0.40;;;7.10;90.00;;;;;;4865339;29;20041;-77
2022/09/29 00:23:24;;;;;;;0.40;0.40;;;7.10;90.00;;;;;;4880876;29;20043;-77
2022/09/29 00:26:04;;;;;;;0.40;0.40;;;7.00;90.00;;;;;;4881618;29;20092;-78
2022/09/29 00:28:31;;;;;;;0.45;0.45;;;7.00;90.10;;;;;;4865515;29;20045;-77
2022/09/29 00:30:59;;;;;;;0.30;0.30;;;7.00;90.10;;;;;;4897616;29;20048;-78
2022/09/29 00:33:27;;;;;;;0.40;0.40;;;7.00;90.10;;;;;;4865513;29;20200;-78
2022/09/29 00:35:59;;;;;;;0.50;0.40;;;7.00;90.10;;;;;;4897895;29;20055;-77
2022/09/29 00:38:25;;;;;;;0.40;0.40;;;7.00;90.00;;;;;;4880556;29;20135;-78
2022/09/29 00:40:51;;;;;;;0.73;0.40;;;6.90;90.00;;;;;;4897580;29;20051;-77
2022/09/29 00:43:45;;;;;;;0.35;0.35;;;7.00;90.00;;;;;;4880787;29;20033;-78
2022/09/29 00:46:12;;;;;;;0.85;0.40;;;6.90;90.00;;;;;;4897587;29;20523;-77
2022/09/29 00:48:39;;;;;;;0.40;0.40;;;6.90;90.00;;;;;;4881134;29;20045;-74
2022/09/29 00:51:06;;;;;;;0.43;0.43;;;6.90;90.00;;;;;;4896995;29;20484;-77
2022/09/29 00:53:32;;;;;;;1.20;0.60;;;6.90;90.10;;;;;;4897500;29;20033;-77
2022/09/29 00:56:04;;;;;;;0.52;0.40;;;6.80;90.10;;;;;;4897486;29;20064;-77
2022/09/29 00:58:35;;;;;;;0.30;0.30;;;6.90;90.10;;;;;;4897683;29;20056;-77
2022/09/29 01:01:01;;;;;;;0.73;0.40;;;6.90;90.10;;;;;;4897622;29;20043;-77
2022/09/29 01:03:33;;;;;;;0.30;0.30;;;6.80;90.10;;;;;;4897284;29;20037;-77
2022/09/29 01:06:09;;;;;;;0.25;0.22;;;6.80;90.10;;;;;;4897220;29;20483;-77
2022/09/29 01:08:51;;;;;;;0.30;0.30;;;6.80;90.10;;;;;;4897366;29;20040;-77
2022/09/29 01:11:20;;;;;;;0.35;0.35;;;6.90;90.10;;;;;;4897590;29;20037;-77
2022/09/29 01:13:47;;;;;;;0.30;0.30;;;6.70;90.00;;;;;;4864932;29;20049;-77
2022/09/29 01:16:13;;;;;;;0.40;0.40;;;6.90;90.10;;;;;;4897398;29;20500;-78
2022/09/29 01:18:39;;;;;;;0.75;0.47;;;6.80;90.10;;;;;;4897142;29;20210;-77
2022/09/29 01:21:29;;;;;;;0.30;0.30;;;6.70;90.10;;;;;;4880181;29;20132;-77
2022/09/29 01:24:19;;;;;;;0.75;0.50;;;6.60;90.00;;;;;;4863891;29;20037;-77
2022/09/29 01:27:14;;;;;;;1.60;0.40;;;6.60;90.10;;;;;;4862742;29;20510;-78
2022/09/29 01:30:09;;;;;;;0.60;0.40;;;6.60;90.10;;;;;;4896625;29;20049;-78
2022/09/29 01:32:54;;;;;;;0.70;0.50;;;6.60;90.10;;;;;;4896765;29;20445;-78
2022/09/29 01:35:39;;;;;;;0.52;0.38;;;6.60;90.10;;;;;;4881636;29;20028;-77
2022/09/29 01:38:26;;;;;;;0.30;0.30;;;6.60;90.10;;;;;;4880287;29;20052;-77
2022/09/29 01:41:17;;;;;;;0.35;0.30;;;6.60;90.10;;;;;;4870202;29;20469;-77
2022/09/29 01:44:13;;;;;;;0.52;0.40;;;6.50;90.10;;;;;;4863805;29;20345;-77
2022/09/29 01:46:45;;;;;;;0.30;0.30;;;6.60;90.20;;;;;;4879980;29;20041;-77
2022/09/29 01:49:12;;;;;;;0.30;0.30;;;6.50;90.20;;;;;;4896722;29;20500;-78
2022/09/29 01:51:51;;;;;;;0.20;0.20;;;6.50;90.20;;;;;;4875844;29;20048;-77
2022/09/29 01:54:41;;;;;;;0.55;0.20;;;6.50;90.20;;;;;;4896471;29;20037;-78
2022/09/29 01:57:32;;;;;;;0.30;0.30;;;6.40;90.20;;;;;;4896132;29;20036;-77
2022/09/29 02:00:08;;;;;;;0.40;0.40;;;6.50;90.20;;;;;;4895962;29;20048;-77
2022/09/29 02:02:51;;;;;;;0.47;0.40;;;6.40;90.10;;;;;;4896082;29;20029;-78
2022/09/29 02:05:23;;;;;;;0.20;0.20;;;6.50;90.20;;;;;;4896177;29;20040;-77
2022/09/29 02:07:49;;;;;;;;;;;6.40;90.10;;;;;;4897067;29;20036;-78
2022/09/29 02:10:23;;;;;;;0.30;0.30;;;6.50;90.10;;;;;;4879502;29;19915;-77
2022/09/29 02:12:52;;;;;;;0.30;0.30;;;6.50;90.10;;;;;;4896027;29;20060;-78
2022/09/29 02:15:25;;;;;;;0.38;0.32;;;6.40;90.10;;;;;;4895960;29;20044;-77
2022/09/29 02:17:53;;;;;;;0.40;0.40;;;6.40;90.10;;;;;;4868309;29;20049;-77
2022/09/29 02:20:21;;;;;;;0.40;0.40;;;6.50;90.10;;;;;;4879174;29;20041;-77
2022/09/29 02:22:47;;;;;;;0.40;0.30;;;6.40;90.10;;;;;;4895787;29;20524;-77
2022/09/29 02:25:17;;;;;;;0.57;0.50;;;6.40;90.10;;;;;;4879571;29;20091;-77
2022/09/29 02:27:43;;;;;;;0.40;0.40;;;6.40;90.20;;;;;;4850503;29;20068;-77
2022/09/29 02:30:11;;;;;;;1.40;0.40;;;6.30;90.10;;;;;;4863703;29;20357;-77
2022/09/29 02:32:37;;;;;;;1.00;0.50;;;6.30;90.20;;;;;;4863985;29;20194;-77
2022/09/29 02:35:06;;;;;;;0.57;0.40;;;6.30;90.20;;;;;;4879065;29;20140;-77
2022/09/29 02:37:53;;;;;;;0.40;0.40;;;6.30;90.20;;;;;;4895910;29;20064;-77
2022/09/29 02:40:40;;;;;;;0.50;0.40;;;6.30;90.20;;;;;;4895610;29;20476;-77
2022/09/29 02:43:36;;;;;;;0.40;0.40;;;6.20;90.20;;;;;;4865710;29;20510;-77
2022/09/29 02:46:27;;;;;;;0.50;0.40;;;6.30;90.20;;;;;;4868106;29;20033;-77
2022/09/29 02:49:27;;;;;;;0.50;0.50;;;6.30;90.20;;;;;;4878812;29;20040;-77
2022/09/29 02:51:58;;;;;;;1.13;0.30;;;6.20;90.20;;;;;;4895579;29;20041;-77
2022/09/29 02:54:46;;;;;;;0.40;0.38;;;6.30;90.20;;;;;;4896131;29;20101;-77
2022/09/29 02:57:27;;;;;;;0.30;0.30;;;6.30;90.20;;;;;;4895653;29;20068;-77
2022/09/29 03:00:10;;;;;;;0.30;0.28;;;6.10;90.10;;;;;;4864819;29;20033;-77
2022/09/29 03:02:38;;;;;;;0.30;0.30;;;6.20;90.20;;;;;;4878634;29;20041;-77
2022/09/29 03:05:06;;;;;;;0.40;0.40;;;6.20;90.20;;;;;;4895848;29;20048;-77
2022/09/29 03:07:33;;;;;;;0.30;0.30;;;6.10;90.20;;;;;;4895489;29;20137;-77
2022/09/29 03:09:59;;;;;;;0.40;0.40;;;6.10;90.20;;;;;;4894548;29;20097;-77
2022/09/29 03:12:24;;;;;;;1.02;0.47;;;6.10;90.20;;;;;;4895747;29;20458;-77
2022/09/29 03:14:50;;;;;;;0.40;0.30;;;6.10;90.20;;;;;;4895697;29;20049;-77
2022/09/29 03:17:16;;;;;;;0.30;0.30;;;6.10;90.20;;;;;;4898750;29;20072;-77
2022/09/29 03:19:42;;;;;;;0.70;0.40;;;6.10;90.20;;;;;;4898694;29;20076;-77
2022/09/29 03:22:07;;;;;;;0.82;0.40;;;6.00;90.20;;;;;;4898938;29;20037;-78
2022/09/29 03:24:34;;;;;;;0.60;0.38;;;6.10;90.20;;;;;;4870421;29;20117;-77
2022/09/29 03:26:59;;;;;;;0.40;0.40;;;6.00;90.20;;;;;;4899003;29;20040;-76
2022/09/29 03:29:25;;;;;;;0.50;0.30;;;6.00;90.20;;;;;;4874256;29;20033;-77
2022/09/29 03:31:51;;;;;;;0.50;0.50;;;6.00;90.20;;;;;;4899005;29;20113;-77
2022/09/29 03:34:18;;;;;;;0.22;0.22;;;6.00;90.20;;;;;;4866334;29;20396;-78
2022/09/29 03:36:43;;;;;;;0.40;0.40;;;6.00;90.20;;;;;;4866246;29;20045;-76
2022/09/29 03:39:09;;;;;;;0.52;0.30;;;6.00;90.20;;;;;;4866013;29;20062;-77
2022/09/29 03:41:35;;;;;;;0.80;0.52;;;6.10;90.20;;;;;;4881444;29;20510;-77
2022/09/29 03:44:01;;;;;;;0.50;0.50;;;6.00;90.20;;;;;;4898530;29;20052;-77
2022/09/29 03:46:27;;;;;;;0.80;0.50;;;5.90;90.20;;;;;;4877579;29;20399;-77
2022/09/29 03:48:53;;;;;;;0.63;0.40;;;6.00;90.30;;;;;;4865935;29;20052;-77
2022/09/29 03:51:19;;;;;;;0.40;0.40;;;6.00;90.20;;;;;;4881657;29;20037;-78
2022/09/29 03:53:45;;;;;;;0.40;0.30;;;6.10;90.30;;;;;;4866314;29;20044;-77
2022/09/29 03:56:10;;;;;;;0.40;0.40;;;6.00;90.20;;;;;;4865968;29;20121;-77
2022/09/29 03:58:36;;;;;;;0.60;0.60;;;6.00;90.20;;;;;;4865695;29;20037;-77
2022/09/29 04:01:02;;;;;;;0.40;0.40;;;5.90;90.20;;;;;;4898174;29;20047;-77
2022/09/29 04:03:28;;;;;;;0.40;0.40;;;5.90;90.20;;;;;;4877436;29;20037;-77
2022/09/29 04:05:54;;;;;;;0.80;0.60;;;6.00;90.20;;;;;;4881727;29;20036;-77
2022/09/29 04:08:20;;;;;;;1.55;0.50;;;5.90;90.20;;;;;;4881958;29;20439;-77
2022/09/29 04:10:47;;;;;;;0.50;0.50;;;6.00;90.20;;;;;;4898714;29;20041;-77
2022/09/29 04:13:13;;;;;;;0.40;0.40;;;6.00;90.20;;;;;;4898760;29;20076;-77
2022/09/29 04:15:38;;;;;;;0.38;0.38;;;5.90;90.10;;;;;;4898202;29;20032;-77
2022/09/29 04:18:05;;;;;;;0.95;0.50;;;5.90;90.20;;;;;;4898705;29;20052;-77
2022/09/29 04:20:31;;;;;;;0.68;0.40;;;5.90;90.20;;;;;;4897954;29;20499;-77
2022/09/29 04:22:57;;;;;;;0.40;0.38;;;6.00;90.20;;;;;;4898669;29;20052;-77
2022/09/29 04:25:23;;;;;;;0.47;0.40;;;5.90;90.20;;;;;;4881139;29;20028;-77
2022/09/29 04:27:49;;;;;;;0.52;0.45;;;6.00;90.20;;;;;;4898360;29;20048;-77
2022/09/29 04:30:15;;;;;;;0.57;0.50;;;5.90;90.20;;;;;;4881193;29;20518;-77
2022/09/29 04:32:41;;;;;;;0.32;0.32;;;5.90;90.20;;;;;;4880772;29;20039;-77
2022/09/29 04:35:07;;;;;;;0.43;0.32;;;5.90;90.20;;;;;;4897970;29;20032;-77
2022/09/29 04:37:33;;;;;;;0.40;0.40;;;5.90;90.20;;;;;;4867457;29;20403;-77
2022/09/29 04:39:59;;;;;;;0.40;0.40;;;5.90;90.20;;;;;;4897889;29;20045;-77
2022/09/29 04:42:25;;;;;;;0.65;0.50;;;6.00;90.20;;;;;;4880934;29;20373;-77
2022/09/29 04:44:51;;;;;;;0.40;0.40;;;5.90;90.20;;;;;;4865397;29;20088;-78
2022/09/29 04:47:17;;;;;;;0.45;0.40;;;5.90;90.10;;;;;;4881087;29;20040;-78
2022/09/29 04:49:42;;;;;;;0.50;0.30;;;5.90;90.10;;;;;;4865472;29;20036;-78
2022/09/29 04:52:11;;;;;;;0.22;0.20;;;6.10;90.20;;;;;;4874789;29;20071;-78
2022/09/29 04:54:37;;;;;;;0.32;0.30;;;6.00;90.10;;;;;;4898012;29;20029;-77
2022/09/29 04:57:03;;;;;;;0.30;0.30;;;6.00;90.10;;;;;;4881645;29;20056;-77
2022/09/29 04:59:29;;;;;;;0.20;0.20;;;6.00;90.10;;;;;;4878989;29;20444;-78
2022/09/29 05:01:55;;;;;;;0.30;0.30;;;6.00;90.10;;;;;;4877232;29;20037;-77
2022/09/29 05:04:21;;;;;;;0.70;0.40;;;6.00;90.20;;;;;;4865212;29;20392;-78
2022/09/29 05:06:47;;;;;;;0.40;0.40;;;5.90;90.10;;;;;;4898284;29;20037;-77
2022/09/29 05:09:13;;;;;;;0.35;0.35;;;5.90;90.10;;;;;;4881244;29;20047;-78
2022/09/29 05:11:38;;;;;;;0.30;0.30;;;6.00;90.20;;;;;;4897622;29;20044;-78
2022/09/29 05:14:04;;;;;;;0.30;0.30;;;5.90;90.10;;;;;;4850158;29;20040;-78
2022/09/29 05:16:30;;;;;;;0.20;0.20;;;5.90;90.10;;;;;;4876489;29;20374;-78
2022/09/29 05:18:57;;;;;;;0.20;0.20;;;6.00;90.20;;;;;;4881263;29;20139;-78
2022/09/29 05:21:23;;;;;;;0.40;0.38;;;6.00;90.20;;;;;;4899695;29;20040;-77
2022/09/29 05:23:49;;;;;;;0.30;0.30;;;6.00;90.20;;;;;;4897915;29;20123;-77
2022/09/29 05:26:14;;;;;;;0.35;0.30;;;6.00;90.20;;;;;;4896960;29;20058;-78
2022/09/29 05:28:45;;;;;;;0.20;0.20;;;6.00;90.20;;;;;;4880257;29;20129;-78
2022/09/29 05:31:11;;;;;;;0.38;0.38;;;6.10;90.20;;;;;;4897117;29;20052;-77
2022/09/29 05:33:37;;;;;;;0.40;0.32;;;5.90;90.20;;;;;;4878246;29;20499;-77
2022/09/29 05:36:06;;;;;;;0.38;0.38;;;6.00;90.20;;;;;;4880244;29;20032;-77
2022/09/29 05:38:32;;;;;;;0.43;0.40;;;6.00;90.20;;;;;;4896283;29;20048;-77
2022/09/29 05:40:57;;;;;;;0.38;0.30;;;5.90;90.20;;;;;;4880260;29;20100;-76
2022/09/29 05:43:24;;;;;;;0.57;0.55;;;6.10;90.30;;;;;;4896563;29;20468;-76
2022/09/29 05:45:50;;;;;;;0.82;0.40;;;6.00;90.20;;;;;;4864445;29;20048;-75
2022/09/29 05:48:17;;;;;;;0.40;0.30;;;5.90;90.20;;;;;;4865041;29;20039;-76
2022/09/29 05:50:42;;;;;;;0.47;0.40;;;5.90;90.20;;;;;;4896615;29;20491;-77
2022/09/29 05:53:09;;;;;;;0.30;0.30;;;5.90;90.20;;;;;;4864594;29;20049;-76
2022/09/29 05:55:36;;;;;;;0.40;0.32;;;5.90;90.20;;;;;;4897137;29;20104;-76
2022/09/29 05:58:04;;;;;;;0.52;0.38;;;5.90;90.20;;;;;;4897216;29;20361;-77
2022/09/29 06:00:30;;;;;;;0.30;0.30;;;5.90;90.30;;;;;;4897128;29;20032;-77
2022/09/29 06:02:59;;;;;;;0.40;0.40;;;5.90;90.30;;;;;;4896440;29;20032;-78
2022/09/29 06:06:03;;;;;;;0.73;0.35;;;5.90;90.30;;;;;;4866218;29;20554;-77
2022/09/29 06:08:54;;;;;;;0.35;0.35;;;5.90;90.30;;;;;;4865295;29;20044;-77
2022/09/29 06:15:39;;;;;;;0.22;0.22;;;5.90;90.20;;;;;;4819152;29;20068;-79
2022/09/29 06:18:05;;;;;;;0.38;0.38;;;5.90;90.10;;;;;;4712542;30;20053;-79
2022/09/29 06:20:38;;;;;;;0.47;0.47;;;6.00;90.10;;;;;;4745797;30;20043;-79
2022/09/29 06:23:04;;;;;;;0.50;0.50;;;6.00;90.10;;;;;;4749614;30;20059;-77
2022/09/29 06:25:30;;;;;;;0.40;0.40;;;6.00;90.10;;;;;;4766817;30;20043;-77
2022/09/29 06:27:56;;;;;;;0.40;0.40;;;6.10;90.20;;;;;;4766369;30;20071;-77
2022/09/29 06:30:24;;;;;;;0.40;0.40;;;6.10;90.20;;;;;;4751533;30;20128;-77
2022/09/29 06:32:49;;;;;;;0.40;0.40;;;6.10;90.20;;;;;;4765243;30;20101;-76
2022/09/29 06:37:58;;;;;;;0.40;0.40;;;6.10;90.40;;;;;;4766192;30;20986;-76
2022/09/29 06:40:26;;;;;;;0.43;0.40;;;6.10;90.10;;;;;;4766667;30;20036;-76
2022/09/29 06:42:51;;;;;;;0.68;0.60;;;6.10;90.10;;;;;;4781611;29;20044;-76
2022/09/29 06:45:24;;;;;;;0.40;0.40;;;6.20;90.20;;;;;;4783907;29;20050;-77
2022/09/29 07:59:29;;;;;;;1.23;1.00;;;7.60;89.20;;;;;;4872328;29;20059;-76
2022/09/29 08:09:44;;;;;;;1.25;0.80;;;7.90;89.00;;;;;;4724541;30;20127;-76
2022/09/29 08:16:41;;;;;;;0.98;0.80;;;8.00;88.80;;;;;;4709935;30;20513;-74
2022/09/29 08:19:09;;;;;;;1.30;0.95;;;8.10;88.80;;;;;;4715082;30;20064;-75
2022/09/29 08:25:39;;;;;;;1.02;0.80;;;8.30;89.00;;;;;;4705795;30;20127;-74
2022/09/29 08:28:10;;;;;;;1.88;1.02;;;8.30;88.90;;;;;;4699663;30;20602;-76
2022/09/29 08:33:23;;;;;;;2.03;1.15;;;8.50;88.90;;;;;;4681089;30;19926;-74
2022/09/29 08:35:57;;;;;;;1.90;1.05;;;8.60;88.70;;;;;;4658590;30;20041;-75
2022/09/29 08:38:24;;;;;;;1.73;1.25;;;8.70;88.70;;;;;;4721916;30;20072;-76
2022/09/29 08:41:27;;;;;;;2.47;1.40;;;8.80;88.90;;;;;;4738726;30;20061;-77
2022/09/29 08:44:23;;;;;;;2.40;1.30;;;8.80;88.80;;;;;;4752671;29;20119;-76
2022/09/29 09:19:32;;;;;;;4.13;2.38;;;9.60;88.70;;;;;;4731179;30;20108;-76
2022/09/29 09:22:35;;;;;;;2.10;1.50;;;9.70;88.50;;;;;;4714077;30;20121;-76
2022/09/29 09:53:47;;;;;;;2.15;1.25;;;10.30;88.70;;;;;;4801711;29;20099;-77
2022/09/29 10:07:13;;;;;;;0.95;0.90;;;10.50;88.40;;;;;;4623615;31;20082;-77
2022/09/29 10:27:29;;;;;;;1.92;1.10;;;10.80;87.80;;;;;;4616312;30;20051;-77
2022/09/29 10:29:59;;;;;;;2.28;1.50;;;11.00;87.70;;;;;;4578535;31;20052;-77
2022/09/29 10:32:37;;;;;;;2.33;1.50;;;11.10;87.70;;;;;;4572078;30;20066;-78
2022/09/29 10:35:37;;;;;;;2.45;1.40;;;11.10;87.50;;;;;;4611435;31;20052;-77
2022/09/29 10:41:55;;;;;;;1.45;1.10;;;11.20;87.50;;;;;;4621805;31;20066;-77
2022/09/29 10:59:32;;;;;;;1.20;1.00;;;11.60;86.80;;;;;;4548377;31;20646;-77
2022/09/29 11:09:06;;;;;;;1.90;1.20;;;11.90;86.10;;;;;;4611119;31;20054;-76
2022/09/29 11:11:59;;;;;;;1.45;1.10;;;12.00;86.00;;;;;;4642307;30;20147;-76
2022/09/29 11:14:42;;;;;;;1.00;0.90;;;12.20;85.90;;;;;;4647371;30;20062;-76
2022/09/29 11:24:34;;;;;;;1.45;0.98;;;12.40;85.40;;;;;;4627418;30;20126;-75
2022/09/29 11:27:25;;;;;;;0.70;0.70;;;12.40;85.20;;;;;;4625468;30;20044;-76
2022/09/29 11:37:50;;;;;;;1.67;0.80;;;12.60;85.30;;;;;;4764869;29;20058;-77
2022/09/29 11:41:26;;;;;;;1.00;0.80;;;12.70;85.20;;;;;;4822240;29;20046;-76
2022/09/29 11:53:03;;;;;;;0.60;0.60;;;12.80;84.60;;;;;;4731837;30;20492;-76
2022/09/29 12:12:48;;;;;;;0.77;0.65;;;13.30;83.90;;;;;;4635130;30;20142;-75
2022/09/29 12:19:00;;;;;;;0.52;0.45;;;13.60;83.50;;;;;;4573676;31;21440;-75
2022/09/29 12:37:41;;;;;;;0.45;0.45;;;13.50;83.90;;;;;;4673078;30;20458;-76
2022/09/29 12:40:45;;;;;;;0.52;0.47;;;13.80;83.50;;;;;;4677034;30;20434;-75
2022/09/29 12:43:29;;;;;;;0.90;0.50;;;14.00;82.80;;;;;;4670451;30;20051;-75
2022/09/29 13:07:00;;;;;;;0.47;0.40;;;13.80;83.00;;;;;;4627065;30;20123;-77
2022/09/29 13:10:01;;;;;;;0.40;0.38;;;14.00;82.80;;;;;;4635825;30;20187;-76
2022/09/29 13:12:51;;;;;;;0.40;0.40;;;14.00;82.70;;;;;;4638559;31;20055;-77
2022/09/29 13:16:04;;;;;;;0.30;0.30;;;14.20;82.40;;;;;;4670554;30;20050;-78
2022/09/29 13:19:16;;;;;;;0.60;0.60;;;14.30;82.10;;;;;;4676235;30;20051;-77
2022/09/29 13:22:05;;;;;;;0.43;0.43;;;14.50;81.80;;;;;;4686971;30;20133;-78
2022/09/29 13:24:53;;;;;;;0.40;0.40;;;14.70;81.30;;;;;;4728432;30;20082;-77
2022/09/29 13:27:29;;;;;;;0.60;0.40;;;14.90;81.00;;;;;;4734742;30;20143;-76
2022/09/29 13:30:18;;;;;;;0.47;0.47;;;14.80;80.60;;;;;;4760597;30;20126;-76
2022/09/29 13:33:17;;;;;;;0.70;0.50;;;14.80;80.30;;;;;;4730698;30;20056;-75
2022/09/29 13:35:48;;;;;;;0.40;0.40;;;14.80;80.40;;;;;;4697027;30;20053;-75
2022/09/29 13:38:19;;;;;;;0.38;0.38;;;14.90;80.30;;;;;;4730699;30;20053;-77
2022/09/29 13:41:22;;;;;;;0.47;0.47;;;14.90;80.30;;;;;;4731288;30;20037;-77
2022/09/29 13:44:21;;;;;;;0.43;0.40;;;15.00;80.20;;;;;;4731078;30;20171;-76
2022/09/29 13:46:47;;;;;;;0.30;0.30;;;15.00;80.30;;;;;;4738988;30;20054;-76
2022/09/29 13:49:22;;;;;;;0.20;0.20;;;15.10;80.00;;;;;;4755158;30;20039;-77
2022/09/29 13:52:27;;;;;;;0.40;0.40;;;15.10;79.90;;;;;;4790549;29;20035;-77
2022/09/29 13:54:53;;;;;;;0.50;0.50;;;15.10;80.00;;;;;;4778455;29;20180;-77
2022/09/29 13:57:22;;;;;;;0.60;0.57;;;15.10;80.00;;;;;;4821611;29;20125;-76
2022/09/29 14:00:04;;;;;;;0.82;0.70;;;15.20;79.80;;;;;;4823337;29;20061;-76
2022/09/29 14:02:38;;;;;;;0.50;0.43;;;15.20;79.70;;;;;;4839444;29;20393;-76
2022/09/29 14:05:24;;;;;;;0.60;0.40;;;15.20;79.70;;;;;;4808352;29;20046;-77
2022/09/29 14:08:14;;;;;;;0.55;0.32;;;15.30;79.70;;;;;;4844535;29;20044;-76
2022/09/29 14:10:45;;;;;;;0.60;0.60;;;15.30;80.10;;;;;;4864808;29;20123;-76
2022/09/29 14:13:18;;;;;;;0.40;0.40;;;15.30;79.40;;;;;;4878764;29;20033;-76
2022/09/29 14:16:06;;;;;;;0.40;0.40;;;15.30;79.50;;;;;;4846024;29;20025;-76
2022/09/29 14:18:39;;;;;;;0.68;0.50;;;15.20;79.30;;;;;;4877642;29;20496;-76
2022/09/29 14:21:10;;;;;;;0.50;0.50;;;15.30;79.40;;;;;;4877497;29;20045;-75
2022/09/29 14:23:55;;;;;;;0.47;0.47;;;15.20;79.40;;;;;;4845807;29;20049;-76
2022/09/29 14:26:49;;;;;;;0.32;0.32;;;15.10;79.40;;;;;;4877682;29;20041;-78
2022/09/29 14:29:23;;;;;;;0.20;0.20;;;15.10;79.50;;;;;;4857999;29;20447;-77
2022/09/29 14:31:53;;;;;;;0.47;0.40;;;15.10;79.60;;;;;;4860919;29;20033;-77
2022/09/29 14:34:22;;;;;;;0.40;0.40;;;15.00;79.60;;;;;;4861404;29;20040;-78
2022/09/29 14:36:50;;;;;;;0.38;0.38;;;15.00;79.60;;;;;;4868457;29;20386;-78
2022/09/29 14:39:16;;;;;;;0.40;0.40;;;14.90;79.60;;;;;;4877653;29;20206;-78
2022/09/29 14:41:44;;;;;;;0.30;0.30;;;14.90;79.50;;;;;;4860563;29;20052;-77
2022/09/29 14:44:19;;;;;;;0.20;0.20;;;14.90;79.40;;;;;;4877588;29;20045;-78
2022/09/29 14:53:07;;;;;;;0.30;0.30;;;14.90;78.80;;;;;;4877340;29;20057;-78
2022/09/29 14:55:51;;;;;;;1.05;0.40;;;15.00;78.70;;;;;;4860973;29;20108;-78
2022/09/29 14:58:57;;;;;;;0.80;0.30;;;15.00;78.50;;;;;;4862755;29;20105;-78
2022/09/29 15:01:29;;;;;;;0.40;0.40;;;15.00;78.40;;;;;;4875750;29;20045;-77
2022/09/29 15:04:03;;;;;;;0.20;0.20;;;15.00;78.90;;;;;;4877491;29;20036;-78
2022/09/29 15:06:30;;;;;;;0.55;0.40;;;14.90;78.20;;;;;;4877143;29;20026;-78
2022/09/29 15:08:59;;;;;;;0.25;0.25;;;15.00;78.30;;;;;;4860369;29;20030;-78
2022/09/29 15:11:42;;;;;;;0.30;0.30;;;14.90;79.00;;;;;;4847398;29;20136;-78
2022/09/29 16:04:18;;;;;;;0.20;0.20;;;14.80;77.10;;;;;;4643522;30;20069;-78
2022/09/29 16:06:45;;;;;;;0.35;0.35;;;14.80;77.30;;;;;;4646930;30;20054;-78
2022/09/29 16:09:18;;;;;;;0.20;0.20;;;14.70;77.40;;;;;;4646654;30;20043;-79
2022/09/29 16:11:44;;;;;;;0.20;0.20;;;14.70;77.50;;;;;;4651600;30;20060;-79
2022/09/29 16:14:21;;;;;;;0.30;0.30;;;14.70;77.50;;;;;;4672930;30;20154;-78
2022/09/29 16:16:48;;;;;;;0.30;0.30;;;14.70;77.60;;;;;;4666764;30;20045;-79
2022/09/29 16:19:25;;;;;;;0.35;0.35;;;14.60;77.50;;;;;;4681193;30;20060;-79
2022/09/29 16:21:53;;;;;;;0.40;0.40;;;14.60;77.50;;;;;;4686162;30;20091;-79
2022/09/29 16:24:20;;;;;;;0.30;0.30;;;14.60;77.50;;;;;;4707708;30;20143;-79
2022/09/29 16:26:51;;;;;;;0.30;0.30;;;14.60;77.50;;;;;;4768145;30;20400;-79
2022/09/29 16:29:37;;;;;;;0.40;0.40;;;14.50;77.40;;;;;;4814517;29;20552;-79
2022/09/29 16:32:36;;;;;;;0.35;0.28;;;14.50;77.50;;;;;;4848386;29;20042;-79
2022/09/29 16:35:39;;;;;;;0.22;0.22;;;14.50;77.60;;;;;;4879301;29;20496;-79
2022/09/29 16:38:26;;;;;;;0.40;0.40;;;14.40;77.70;;;;;;4878969;29;20056;-79
2022/09/29 16:40:55;;;;;;;0.43;0.43;;;14.30;77.80;;;;;;4862779;29;20037;-79
2022/09/29 16:43:26;;;;;;;0.38;0.38;;;14.40;78.00;;;;;;4879468;29;20089;-79
2022/09/29 16:45:55;;;;;;;0.40;0.38;;;14.30;78.10;;;;;;4879792;29;20037;-79
2022/09/29 16:48:23;;;;;;;0.43;0.43;;;14.20;78.10;;;;;;4863087;29;20076;-79
2022/09/29 16:50:56;;;;;;;0.40;0.40;;;14.30;78.30;;;;;;4879259;29;20045;-79
2022/09/29 16:53:28;;;;;;;0.35;0.35;;;14.20;78.30;;;;;;4879115;29;20075;-79
2022/09/29 16:55:58;;;;;;;0.50;0.40;;;14.10;78.30;;;;;;4879195;29;20056;-79
2022/09/29 16:58:25;;;;;;;0.40;0.40;;;14.00;78.50;;;;;;4862252;29;20045;-79
2022/09/29 17:00:52;;;;;;;0.40;0.40;;;14.00;78.80;;;;;;4879467;29;20037;-78
2022/09/29 17:03:18;;;;;;;0.52;0.52;;;13.80;78.90;;;;;;4879183;29;20037;-78
2022/09/29 17:05:47;;;;;;;0.40;0.40;;;13.80;79.20;;;;;;4879208;29;20415;-78
2022/09/29 17:08:23;;;;;;;0.52;0.50;;;13.70;79.40;;;;;;4878863;29;20037;-78
2022/09/29 17:10:51;;;;;;;0.30;0.30;;;13.60;80.10;;;;;;4879118;29;20048;-79
2022/09/29 17:13:19;;;;;;;0.50;0.50;;;13.50;79.70;;;;;;4879153;29;20435;-78
2022/09/29 17:15:48;;;;;;;0.50;0.50;;;13.40;79.80;;;;;;4878447;29;20404;-78
2022/09/29 17:18:15;;;;;;;0.60;0.60;;;13.30;80.00;;;;;;4878627;29;20104;-78
2022/09/29 17:20:41;;;;;;;0.50;0.50;;;13.30;80.30;;;;;;4877336;29;20037;-78
2022/09/29 17:23:07;;;;;;;0.60;0.60;;;13.20;80.50;;;;;;4878501;29;20059;-78
2022/09/29 17:25:35;;;;;;;1.13;0.50;;;13.10;80.60;;;;;;4878505;29;20408;-78
2022/09/29 17:30:39;;;;;;;0.70;0.55;;;12.90;81.00;;;;;;4878509;29;20041;-78
2022/09/29 17:33:06;;;;;;;0.60;0.60;;;12.70;81.00;;;;;;4862127;29;20048;-78
2022/09/29 17:35:37;;;;;;;0.50;0.50;;;12.70;81.20;;;;;;4879030;29;20384;-78
2022/09/29 17:38:06;;;;;;;0.73;0.70;;;12.60;81.40;;;;;;4878987;29;20057;-78
2022/09/29 17:40:48;;;;;;;0.63;0.63;;;12.50;81.50;;;;;;4861613;29;20044;-78
2022/09/29 17:43:16;;;;;;;1.15;0.80;;;12.50;81.70;;;;;;4878299;29;20519;-78
2022/09/29 17:45:43;;;;;;;0.80;0.80;;;12.40;81.80;;;;;;4877767;29;20060;-78
2022/09/29 17:48:09;;;;;;;0.73;0.70;;;12.30;82.00;;;;;;4878965;29;20428;-78
2022/09/29 17:50:46;;;;;;;0.40;0.40;;;12.20;82.00;;;;;;4878363;29;20068;-78
2022/09/29 17:53:13;;;;;;;0.65;0.65;;;12.10;82.20;;;;;;4877959;29;20045;-78
2022/09/29 17:55:40;;;;;;;0.57;0.57;;;12.00;82.30;;;;;;4861259;29;20063;-79
2022/09/29 17:58:07;;;;;;;1.00;0.80;;;12.00;82.40;;;;;;4876781;29;20132;-79
2022/09/29 18:00:37;;;;;;;0.63;0.63;;;11.90;82.50;;;;;;4861469;29;20086;-78
2022/09/29 18:03:04;;;;;;;1.45;0.73;;;11.80;82.60;;;;;;4861448;29;20096;-78
2022/09/29 18:05:32;;;;;;;0.75;0.73;;;11.80;82.70;;;;;;4878598;29;20033;-78
2022/09/29 18:07:58;;;;;;;0.77;0.60;;;11.70;82.80;;;;;;4861721;29;20044;-78
2022/09/29 18:10:33;;;;;;;1.15;0.80;;;11.60;82.90;;;;;;4877906;29;20117;-78
2022/09/29 18:12:58;;;;;;;0.93;0.63;;;11.60;83.00;;;;;;4862598;29;20059;-78
2022/09/29 18:15:25;;;;;;;0.60;0.60;;;11.50;83.10;;;;;;4877831;29;20548;-77
2022/09/29 18:17:56;;;;;;;1.10;0.82;;;11.40;83.10;;;;;;4861218;29;20033;-77
2022/09/29 18:20:23;;;;;;;0.80;0.70;;;11.40;83.20;;;;;;4878028;29;20127;-77
2022/09/29 18:22:48;;;;;;;0.90;0.70;;;11.30;83.30;;;;;;4861717;29;20065;-78
2022/09/29 18:25:17;;;;;;;0.70;0.70;;;11.30;83.40;;;;;;4877697;29;20037;-77
2022/09/29 18:27:45;;;;;;;0.82;0.70;;;11.20;83.30;;;;;;4860712;29;20042;-78
2022/09/29 18:30:19;;;;;;;1.00;0.82;;;11.10;83.40;;;;;;4877615;29;20583;-78
2022/09/29 18:32:47;;;;;;;0.63;0.50;;;11.10;83.50;;;;;;4859403;29;20462;-78
2022/09/29 18:35:16;;;;;;;0.65;0.65;;;11.00;83.50;;;;;;4878169;29;20033;-78
2022/09/29 18:37:42;;;;;;;1.08;0.90;;;10.90;83.50;;;;;;4861370;29;20041;-78
2022/09/29 18:40:09;;;;;;;1.25;0.90;;;10.90;83.60;;;;;;4877707;29;20060;-77
2022/09/29 18:42:41;;;;;;;2.25;0.80;;;10.90;83.70;;;;;;4877758;29;20173;-77
2022/09/29 18:45:11;;;;;;;1.13;0.80;;;10.80;83.70;;;;;;4877059;29;20124;-78
2022/09/29 18:47:39;;;;;;;0.70;0.70;;;10.80;83.70;;;;;;4878002;29;20029;-78
2022/09/29 18:50:15;;;;;;;0.73;0.70;;;10.80;83.80;;;;;;4861204;29;20404;-77
2022/09/29 18:52:41;;;;;;;0.88;0.68;;;10.70;83.80;;;;;;4861087;29;20037;-78
2022/09/29 18:55:07;;;;;;;0.73;0.73;;;10.70;83.90;;;;;;4861095;29;20052;-78
2022/09/29 18:57:33;;;;;;;1.00;0.80;;;10.60;83.90;;;;;;4861102;29;20055;-77
2022/09/29 18:59:58;;;;;;;0.68;0.68;;;10.60;84.00;;;;;;4860898;29;20404;-78
2022/09/29 19:02:25;;;;;;;0.60;0.60;;;10.50;84.00;;;;;;4861167;29;20037;-78
2022/09/29 19:04:51;;;;;;;0.93;0.73;;;10.50;84.10;;;;;;4878382;29;20124;-77
2022/09/29 19:07:18;;;;;;;0.90;0.80;;;10.50;84.20;;;;;;4861515;29;20484;-77
2022/09/29 19:09:44;;;;;;;1.15;0.80;;;10.40;84.20;;;;;;4860419;29;20040;-79
2022/09/29 19:12:10;;;;;;;1.00;0.70;;;10.50;84.40;;;;;;4877221;29;20441;-76
2022/09/29 19:14:36;;;;;;;1.00;0.80;;;10.30;84.40;;;;;;4877384;29;20495;-74
2022/09/29 19:17:04;;;;;;;1.13;0.77;;;10.30;84.40;;;;;;4878510;29;20449;-77